Time;durP1;ratioP1;P1;durP2;ratioP2;P2;SDS_P1;SDS_P2;PMS_P1;PMS_P2;Temp;Humidity;BMP_temperature;BMP_pressure;BME280_temperature;BME280_humidity;BME280_pressure;Samples;Min_cycle;Max_cycle;Signal;HPM_P1;HPM_P2
2023/09/06 00:01:35;;;;;;;4.13;3.73;;;;;;;19.73;100.00;99785.53;5111767;28;20280;-68
2023/09/06 00:04:03;;;;;;;3.97;3.67;;;;;;;19.76;100.00;99785.34;5111528;28;20200;-68
2023/09/06 00:06:30;;;;;;;4.00;3.67;;;;;;;19.75;100.00;99788.84;5111520;28;20198;-68
2023/09/06 00:08:57;;;;;;;4.53;4.23;;;;;;;19.78;100.00;99788.66;5111310;28;20664;-68
2023/09/06 00:11:25;;;;;;;4.27;3.97;;;;;;;19.85;100.00;99797.75;5110835;28;20281;-68
2023/09/06 00:13:52;;;;;;;4.40;4.00;;;;;;;19.87;100.00;99787.28;5110817;28;20258;-68
2023/09/06 00:16:19;;;;;;;4.70;4.37;;;;;;;19.88;100.00;99789.75;5110861;28;20201;-68
2023/09/06 00:18:46;;;;;;;4.43;4.20;;;;;;;19.85;100.00;99789.97;5111147;28;20196;-68
2023/09/06 00:21:52;;;;;;;4.67;4.37;;;;;;;19.86;100.00;99791.63;5110497;28;20203;-68
2023/09/06 00:24:20;;;;;;;6.03;4.00;;;;;;;19.84;100.00;99793.47;5104736;28;20230;-68
2023/09/06 00:26:49;;;;;;;3.87;3.63;;;;;;;19.82;100.00;99784.94;5110687;28;20194;-68
2023/09/06 00:29:16;;;;;;;4.77;3.57;;;;;;;19.82;100.00;99787.53;5110826;28;20204;-68
2023/09/06 00:31:43;;;;;;;3.83;3.63;;;;;;;19.83;100.00;99791.84;5110327;28;20663;-68
2023/09/06 00:34:10;;;;;;;5.17;4.23;;;;;;;19.80;100.00;99786.81;5110497;28;20200;-68
2023/09/06 00:36:36;;;;;;;3.70;3.50;;;;;;;19.71;100.00;99776.94;5111137;28;20201;-68
2023/09/06 00:39:05;;;;;;;4.40;4.00;;;;;;;19.75;100.00;99781.03;5109824;28;20253;-68
2023/09/06 00:41:33;;;;;;;3.60;3.30;;;;;;;19.73;100.00;99775.13;5110868;28;20196;-68
2023/09/06 00:44:00;;;;;;;3.47;3.27;;;;;;;19.72;100.00;99781.25;5110555;28;20673;-68
2023/09/06 00:46:28;;;;;;;4.43;3.97;;;;;;;19.71;100.00;99776.94;5110418;28;20195;-68
2023/09/06 00:48:55;;;;;;;6.33;4.13;;;;;;;19.74;100.00;99778.56;5110004;28;20658;-68
2023/09/06 00:51:22;;;;;;;4.33;4.07;;;;;;;19.77;100.00;99771.38;5110723;28;21435;-68
2023/09/06 00:53:49;;;;;;;3.63;3.43;;;;;;;19.74;100.00;99771.56;5110614;28;20219;-68
2023/09/06 00:56:17;;;;;;;4.33;4.00;;;;;;;19.70;100.00;99777.06;5110417;28;20673;-68
2023/09/06 00:58:46;;;;;;;3.20;3.10;;;;;;;19.68;100.00;99769.34;5110853;28;20205;-68
2023/09/06 01:01:13;;;;;;;8.10;4.10;;;;;;;19.67;100.00;99769.44;5110271;28;20250;-68
2023/09/06 01:03:41;;;;;;;4.20;3.83;;;;;;;19.62;100.00;99767.13;5111256;28;20193;-68
2023/09/06 01:06:16;;;;;;;4.50;3.50;;;;;;;19.68;100.00;99761.53;5110650;28;20298;-68
2023/09/06 01:08:46;;;;;;;4.17;3.97;;;;;;;19.70;100.00;99764.06;5109981;28;20204;-68
2023/09/06 01:11:20;;;;;;;3.93;3.73;;;;;;;19.63;100.00;99758.41;5110298;28;20201;-68
2023/09/06 01:13:50;;;;;;;3.40;3.10;;;;;;;19.59;100.00;99750.88;5110069;28;20216;-68
2023/09/06 01:16:24;;;;;;;4.60;4.20;;;;;;;19.59;100.00;99746.50;5110349;28;20224;-68
2023/09/06 01:18:51;;;;;;;3.67;3.47;;;;;;;19.62;100.00;99756.72;5110761;28;20679;-68
2023/09/06 01:21:20;;;;;;;3.60;3.40;;;;;;;19.61;100.00;99760.25;5110402;28;20639;-68
2023/09/06 01:23:51;;;;;;;3.40;3.20;;;;;;;19.66;100.00;99758.22;5109778;28;20223;-68
2023/09/06 01:26:19;;;;;;;4.03;3.80;;;;;;;19.67;100.00;99762.50;5110463;28;20278;-68
2023/09/06 01:28:49;;;;;;;4.13;3.93;;;;;;;19.70;100.00;99761.47;5111007;28;20249;-68
2023/09/06 01:31:16;;;;;;;3.40;2.97;;;;;;;19.69;100.00;99763.22;5109549;28;20228;-68
2023/09/06 01:33:43;;;;;;;4.07;3.87;;;;;;;19.68;100.00;99758.94;5110481;28;20208;-68
2023/09/06 01:36:10;;;;;;;3.33;3.13;;;;;;;19.53;100.00;99739.09;5110047;28;20231;-68
2023/09/06 01:38:36;;;;;;;4.13;3.93;;;;;;;19.63;100.00;99761.00;5110121;28;20200;-68
2023/09/06 01:41:05;;;;;;;2.90;2.80;;;;;;;19.62;100.00;99756.72;5109077;28;20543;-68
2023/09/06 01:43:32;;;;;;;3.40;3.20;;;;;;;19.60;100.00;99758.59;5108578;28;20623;-68
2023/09/06 01:45:59;;;;;;;3.50;3.20;;;;;;;19.56;100.00;99751.91;5110241;28;20248;-68
2023/09/06 01:48:25;;;;;;;4.10;3.90;;;;;;;19.57;100.00;99748.38;5110042;28;20209;-68
2023/09/06 01:50:53;;;;;;;3.83;3.63;;;;;;;19.56;100.00;99751.91;5109592;28;20612;-68
2023/09/06 01:53:22;;;;;;;3.37;3.17;;;;;;;19.52;100.00;99750.41;5109973;28;20320;-68
2023/09/06 01:55:49;;;;;;;3.20;3.00;;;;;;;19.39;100.00;99744.25;5110710;28;20198;-68
2023/09/06 01:58:17;;;;;;;3.50;3.30;;;;;;;19.49;100.00;99750.59;5110006;28;20202;-68
2023/09/06 02:00:45;;;;;;;3.43;3.23;;;;;;;19.45;100.00;99764.69;5109966;28;20285;-68
2023/09/06 02:03:16;;;;;;;3.53;3.33;;;;;;;19.48;100.00;99751.53;5113788;28;20192;-68
2023/09/06 02:05:43;;;;;;;2.67;2.57;;;;;;;19.46;100.00;99755.97;5114264;28;20642;-68
2023/09/06 02:08:10;;;;;;;3.47;3.27;;;;;;;19.46;100.00;99750.78;5113361;28;20197;-68
2023/09/06 02:10:37;;;;;;;3.70;3.47;;;;;;;19.46;100.00;99761.19;5113029;28;20257;-68
2023/09/06 02:13:04;;;;;;;3.07;2.87;;;;;;;19.44;100.00;99747.44;5113527;28;20224;-68
2023/09/06 02:15:32;;;;;;;3.60;3.40;;;;;;;19.48;100.00;99758.50;5113096;28;20214;-68
2023/09/06 02:17:59;;;;;;;3.20;3.07;;;;;;;19.46;100.00;99750.78;5114165;28;20198;-68
2023/09/06 02:20:27;;;;;;;3.70;3.50;;;;;;;19.52;100.00;99750.41;5113391;28;20198;-68
2023/09/06 02:22:56;;;;;;;3.90;3.60;;;;;;;19.66;100.00;99768.63;5113793;28;20205;-68
2023/09/06 02:25:24;;;;;;;3.90;3.70;;;;;;;19.75;100.00;99773.25;5113558;28;20213;-68
2023/09/06 02:27:52;;;;;;;2.87;2.67;;;;;;;19.79;100.00;99769.53;5113636;28;20285;-68
2023/09/06 02:30:19;;;;;;;3.87;3.50;;;;;;;19.70;100.00;99743.25;5112540;28;20685;-68
2023/09/06 02:32:48;;;;;;;3.80;3.60;;;;;;;19.86;100.00;99764.78;5113331;28;20274;-68
2023/09/06 02:35:14;;;;;;;3.57;3.27;;;;;;;19.79;100.00;99751.31;5113380;28;20293;-68
2023/09/06 02:37:41;;;;;;;3.70;3.50;;;;;;;19.87;100.00;99759.47;5113192;28;20627;-68
2023/09/06 02:40:13;;;;;;;3.90;3.67;;;;;;;19.88;100.00;99758.53;5112954;28;20203;-68
2023/09/06 02:42:41;;;;;;;3.50;3.27;;;;;;;19.88;100.00;99763.75;5112398;28;20194;-68
2023/09/06 02:45:11;;;;;;;3.23;3.03;;;;;;;19.95;100.00;99768.56;5110623;28;20201;-68
2023/09/06 02:47:47;;;;;;;3.93;3.63;;;;;;;19.99;100.00;99770.06;5113173;28;20194;-68
2023/09/06 02:50:16;;;;;;;3.00;2.90;;;;;;;20.03;100.00;99761.13;5112949;28;20692;-68
2023/09/06 02:52:44;;;;;;;3.87;3.47;;;;;;;20.07;100.00;99766.03;5112908;28;20217;-68
2023/09/06 02:55:13;;;;;;;3.37;3.17;;;;;;;20.10;100.00;99762.38;5112924;28;20249;-68
2023/09/06 02:57:40;;;;;;;4.40;4.10;;;;;;;20.13;100.00;99767.41;5112644;28;20278;-68
2023/09/06 03:00:20;;;;;;;3.23;3.07;;;;;;;20.10;100.00;99747.59;5112602;28;20200;-68
2023/09/06 03:02:48;;;;;;;3.60;3.40;;;;;;;20.03;100.00;99737.69;5112092;28;20223;-68
2023/09/06 03:05:18;;;;;;;4.53;3.23;;;;;;;19.96;100.00;99733.81;5112621;28;20271;-68
2023/09/06 03:07:49;;;;;;;3.97;3.77;;;;;;;19.88;100.00;99747.28;5112957;28;20200;-68
2023/09/06 03:10:19;;;;;;;3.43;3.27;;;;;;;19.72;100.00;99726.59;5111696;28;20206;-68
2023/09/06 03:12:47;;;;;;;3.67;3.40;;;;;;;19.83;100.00;99752.81;5112223;28;20690;-68
2023/09/06 03:15:15;;;;;;;3.70;3.50;;;;;;;19.79;100.00;99759.13;5111824;28;20266;-68
2023/09/06 03:17:46;;;;;;;3.93;3.63;;;;;;;19.77;100.00;99766.16;5112657;28;20200;-68
2023/09/06 03:20:22;;;;;;;3.53;3.33;;;;;;;19.74;100.00;99768.16;5112371;28;20204;-68
2023/09/06 03:22:51;;;;;;;4.53;3.13;;;;;;;19.79;100.00;99768.69;5112448;28;20211;-68
2023/09/06 03:25:18;;;;;;;4.07;3.87;;;;;;;19.85;100.00;99761.34;5112592;28;20220;-68
2023/09/06 03:27:45;;;;;;;4.23;3.93;;;;;;;19.87;100.00;99769.88;5112427;28;20251;-68
2023/09/06 03:30:15;;;;;;;7.60;3.57;;;;;;;19.91;100.00;99766.16;5111505;28;20202;-68
2023/09/06 03:32:43;;;;;;;3.93;3.73;;;;;;;19.97;100.00;99771.94;5111730;28;20196;-68
2023/09/06 03:35:10;;;;;;;4.10;3.87;;;;;;;19.82;100.00;99751.13;5110854;28;20199;-68
2023/09/06 03:37:37;;;;;;;4.07;3.83;;;;;;;20.05;100.00;99777.47;5112516;27;20193;-68
2023/09/06 03:40:25;;;;;;;4.27;4.07;;;;;;;20.07;100.00;99786.00;5111876;28;20251;-68
2023/09/06 03:42:53;;;;;;;4.90;3.23;;;;;;;20.10;100.00;99783.22;5111800;28;20194;-68
2023/09/06 03:45:21;;;;;;;3.57;3.37;;;;;;;20.10;100.00;99785.81;5110901;28;20214;-68
2023/09/06 03:47:48;;;;;;;2.93;2.83;;;;;;;20.10;100.00;99783.22;5112004;28;20221;-69
2023/09/06 03:50:15;;;;;;;3.77;3.57;;;;;;;19.99;100.00;99770.88;5111629;28;20667;-69
2023/09/06 03:52:43;;;;;;;3.10;2.90;;;;;;;20.06;100.00;99790.41;5111477;28;20203;-69
2023/09/06 03:55:11;;;;;;;2.90;2.80;;;;;;;20.04;100.00;99794.00;5111783;28;20198;-68
2023/09/06 03:57:38;;;;;;;3.17;3.00;;;;;;;19.99;100.00;99793.47;5111751;28;20641;-68
2023/09/06 04:02:47;;;;;;;3.67;3.30;;;;;;;20.03;100.00;99792.34;5111391;28;20216;-65
2023/09/06 04:05:14;;;;;;;2.33;2.20;;;;;;;19.95;100.00;99790.22;5111762;27;20200;-64
2023/09/06 04:07:41;;;;;;;3.03;2.93;;;;;;;19.90;100.00;99790.50;5111849;28;20201;-65
2023/09/06 04:10:16;;;;;;;2.80;2.60;;;;;;;19.89;100.00;99791.44;5111462;28;20261;-65
2023/09/06 04:12:44;;;;;;;2.83;2.73;;;;;;;19.88;100.00;99784.56;5111026;28;20247;-65
2023/09/06 04:15:12;;;;;;;2.77;2.60;;;;;;;19.88;100.00;99789.75;5111626;28;20196;-65
2023/09/06 04:17:40;;;;;;;2.97;2.77;;;;;;;19.87;100.00;99793.28;5111734;28;20205;-66
2023/09/06 04:20:19;;;;;;;2.53;2.43;;;;;;;19.87;100.00;99788.09;5111250;28;20197;-66
2023/09/06 04:22:46;;;;;;;3.17;2.97;;;;;;;19.85;100.00;99789.97;5110841;28;20200;-65
2023/09/06 04:25:16;;;;;;;3.87;2.83;;;;;;;19.83;100.00;99788.38;5107258;28;20210;-66
2023/09/06 04:27:45;;;;;;;4.10;3.80;;;;;;;19.80;100.00;99794.63;5109384;28;20627;-65
2023/09/06 04:30:15;;;;;;;2.70;2.60;;;;;;;19.76;100.00;99793.13;5110712;28;20202;-65
2023/09/06 04:32:44;;;;;;;3.53;3.33;;;;;;;19.79;100.00;99798.16;5110610;27;20676;-65
2023/09/06 04:35:11;;;;;;;3.57;3.37;;;;;;;19.81;100.00;99792.84;5110833;28;20217;-65
2023/09/06 04:37:38;;;;;;;3.13;2.93;;;;;;;19.84;100.00;99798.69;5110976;28;20197;-65
2023/09/06 04:40:08;;;;;;;3.50;3.30;;;;;;;19.89;100.00;99801.84;5110354;28;20204;-65
2023/09/06 04:42:34;;;;;;;3.37;3.17;;;;;;;19.92;100.00;99812.06;5110271;28;20666;-65
2023/09/06 04:45:04;;;;;;;3.27;3.03;;;;;;;19.91;100.00;99810.41;5107156;28;20254;-65
2023/09/06 04:47:31;;;;;;;3.57;3.37;;;;;;;19.95;100.00;99810.19;5110564;28;20201;-65
2023/09/06 04:49:58;;;;;;;3.07;2.87;;;;;;;19.89;100.00;99809.66;5110889;28;20210;-66
2023/09/06 04:52:27;;;;;;;2.93;2.83;;;;;;;19.88;100.00;99815.78;5108000;28;20205;-65
2023/09/06 04:54:54;;;;;;;3.40;3.20;;;;;;;19.89;100.00;99807.06;5111198;28;20589;-65
2023/09/06 04:57:21;;;;;;;2.90;2.67;;;;;;;19.84;100.00;99806.50;5109608;28;20210;-66
2023/09/06 04:59:48;;;;;;;3.70;3.30;;;;;;;19.95;100.00;99815.41;5110576;28;20570;-65
2023/09/06 05:02:16;;;;;;;3.90;2.70;;;;;;;19.98;100.00;99815.22;5109406;28;20201;-65
2023/09/06 05:04:43;;;;;;;3.47;3.27;;;;;;;20.04;100.00;99813.06;5110720;28;20202;-65
2023/09/06 05:07:11;;;;;;;3.00;2.90;;;;;;;20.10;100.00;99809.25;5110781;28;20570;-66
2023/09/06 05:09:38;;;;;;;3.07;2.87;;;;;;;20.15;100.00;99807.19;5110966;28;20198;-65
2023/09/06 05:12:06;;;;;;;3.33;3.13;;;;;;;20.21;100.00;99806.81;5109750;28;20767;-65
2023/09/06 05:14:32;;;;;;;2.80;2.70;;;;;;;20.26;100.00;99822.97;5111085;28;20208;-65
2023/09/06 05:16:59;;;;;;;5.03;3.70;;;;;;;20.14;100.00;99797.72;5110917;28;20247;-66
2023/09/06 05:19:27;;;;;;;4.00;3.73;;;;;;;20.29;100.00;99825.44;5110290;28;20670;-65
2023/09/06 05:21:54;;;;;;;3.13;2.93;;;;;;;20.29;100.00;99835.84;5107869;28;20204;-67
2023/09/06 05:24:21;;;;;;;3.07;2.80;;;;;;;20.32;100.00;99830.44;5109373;28;20201;-67
2023/09/06 05:26:48;;;;;;;3.77;3.57;;;;;;;20.28;100.00;99840.22;5110407;28;20198;-66
2023/09/06 05:29:15;;;;;;;3.20;3.07;;;;;;;20.27;100.00;99845.50;5108882;28;20202;-66
2023/09/06 05:31:42;;;;;;;2.70;2.60;;;;;;;20.26;100.00;99844.66;5110520;28;20263;-66
2023/09/06 05:34:09;;;;;;;3.10;2.90;;;;;;;20.22;100.00;99853.59;5109928;28;20290;-67
2023/09/06 05:36:37;;;;;;;3.63;3.43;;;;;;;20.22;100.00;99855.34;5113471;28;20738;-67
2023/09/06 05:39:06;;;;;;;2.50;2.40;;;;;;;20.26;100.00;99851.59;5114436;28;20658;-67
2023/09/06 05:41:33;;;;;;;3.20;3.00;;;;;;;20.27;100.00;99858.53;5113685;28;20218;-67
2023/09/06 05:43:59;;;;;;;2.93;2.83;;;;;;;20.27;100.00;99858.53;5112756;28;20193;-66
2023/09/06 05:46:26;;;;;;;3.60;3.40;;;;;;;20.28;100.00;99852.41;5112878;28;20628;-67
2023/09/06 05:48:53;;;;;;;3.70;3.30;;;;;;;20.30;100.00;99853.13;5113617;28;20209;-67
2023/09/06 05:51:19;;;;;;;3.57;3.27;;;;;;;20.29;100.00;99856.69;5113888;28;20205;-67
2023/09/06 05:53:47;;;;;;;3.80;3.50;;;;;;;20.36;100.00;99857.94;5113712;28;20579;-67
2023/09/06 05:56:14;;;;;;;2.47;2.37;;;;;;;20.40;100.00;99859.44;5112186;28;20288;-66
2023/09/06 05:58:42;;;;;;;2.83;2.73;;;;;;;20.44;100.00;99863.50;5111044;28;20285;-67
2023/09/06 06:01:11;;;;;;;3.10;2.90;;;;;;;20.43;100.00;99869.66;5113607;28;20314;-68
2023/09/06 06:03:38;;;;;;;3.27;3.00;;;;;;;20.43;100.00;99874.84;5111155;28;20246;-65
2023/09/06 06:06:10;;;;;;;3.33;3.13;;;;;;;20.48;100.00;99880.63;5114294;28;20281;-67
2023/09/06 06:08:37;;;;;;;3.57;3.37;;;;;;;20.52;100.00;99878.66;5114582;28;20198;-67
2023/09/06 06:11:05;;;;;;;3.53;3.33;;;;;;;20.52;100.00;99887.28;5113936;28;20206;-65
2023/09/06 06:13:32;;;;;;;2.67;2.57;;;;;;;20.55;100.00;99894.09;5112189;28;20229;-65
2023/09/06 06:15:58;;;;;;;6.93;3.40;;;;;;;20.59;100.00;99900.75;5113125;28;20608;-65
2023/09/06 06:18:26;;;;;;;4.77;3.73;;;;;;;20.63;100.00;99903.09;5112416;28;20247;-65
2023/09/06 06:20:53;;;;;;;8.10;3.00;;;;;;;20.67;100.00;99911.56;5112769;28;20203;-65
2023/09/06 06:23:19;;;;;;;3.73;3.53;;;;;;;20.71;100.00;99910.44;5113280;28;20216;-63
2023/09/06 06:25:46;;;;;;;3.20;3.00;;;;;;;20.76;100.00;99901.38;5112960;28;20198;-66
2023/09/06 06:28:15;;;;;;;3.57;3.27;;;;;;;20.81;100.00;99904.50;5112345;28;20233;-67
2023/09/06 06:30:42;;;;;;;3.47;3.27;;;;;;;20.85;100.00;99919.03;5114508;28;20199;-66
2023/09/06 06:33:09;;;;;;;3.23;3.13;;;;;;;20.84;100.00;99916.53;5111766;28;20202;-68
2023/09/06 06:35:36;;;;;;;4.00;3.80;;;;;;;20.85;100.00;99916.44;5110832;28;20219;-68
2023/09/06 06:38:03;;;;;;;2.80;2.70;;;;;;;20.87;100.00;99917.16;5112502;28;20203;-68
2023/09/06 06:40:29;;;;;;;3.20;3.00;;;;;;;20.86;100.00;99920.72;5111434;28;20191;-67
2023/09/06 06:42:56;;;;;;;3.53;3.33;;;;;;;20.87;100.00;99919.75;5111765;28;20190;-68
2023/09/06 06:45:24;;;;;;;3.20;3.00;;;;;;;20.88;100.00;99915.38;5112585;28;20187;-68
2023/09/06 06:47:51;;;;;;;3.60;3.33;;;;;;;20.91;100.00;99923.00;5111631;28;20263;-68
2023/09/06 06:50:19;;;;;;;3.40;3.17;;;;;;;20.93;100.00;99919.41;5112456;28;20202;-68
2023/09/06 06:52:46;;;;;;;2.60;2.50;;;;;;;20.95;100.00;99914.91;5112552;28;20217;-68
2023/09/06 06:55:13;;;;;;;4.10;3.73;;;;;;;21.00;100.00;99917.22;5112722;28;20267;-68
2023/09/06 06:57:39;;;;;;;4.00;3.80;;;;;;;21.07;100.00;99917.63;5110212;27;20259;-69
2023/09/06 07:00:11;;;;;;;3.57;3.47;;;;;;;21.12;100.00;99915.63;5108463;28;20644;-68
2023/09/06 07:02:39;;;;;;;2.90;2.70;;;;;;;21.15;100.00;99926.69;5112017;28;20195;-69
2023/09/06 07:05:06;;;;;;;3.93;3.63;;;;;;;21.20;100.00;99934.19;5111963;28;20248;-69
2023/09/06 07:07:32;;;;;;;3.30;3.00;;;;;;;21.29;100.00;99933.63;5113211;28;20254;-68
2023/09/06 07:09:59;;;;;;;3.83;3.53;;;;;;;21.38;100.00;99935.59;5112957;28;20751;-69
2023/09/06 07:12:26;;;;;;;2.53;2.43;;;;;;;21.38;100.00;99927.78;5110304;28;20218;-69
2023/09/06 07:14:54;;;;;;;4.00;3.70;;;;;;;21.52;100.00;99927.69;5113233;28;20211;-69
2023/09/06 07:17:20;;;;;;;2.67;2.57;;;;;;;21.62;100.00;99935.72;5113367;28;20699;-69
2023/09/06 07:19:48;;;;;;;2.80;2.60;;;;;;;21.66;100.00;99929.38;5113099;28;20202;-68
2023/09/06 07:22:16;;;;;;;3.03;2.83;;;;;;;21.68;100.00;99930.94;5111369;28;20628;-69
2023/09/06 07:24:43;;;;;;;3.27;3.07;;;;;;;21.76;100.00;99928.66;5110680;28;20228;-69
2023/09/06 07:27:09;;;;;;;3.70;3.57;;;;;;;21.86;100.00;99926.25;5112227;28;20689;-69
2023/09/06 07:29:36;;;;;;;2.93;2.73;;;;;;;21.92;100.00;99929.31;5112043;28;20198;-69
2023/09/06 07:32:03;;;;;;;3.33;3.13;;;;;;;21.98;100.00;99933.28;5112685;28;20708;-69
2023/09/06 07:34:30;;;;;;;2.43;2.33;;;;;;;22.08;100.00;99923.88;5112970;28;20218;-69
2023/09/06 07:36:58;;;;;;;3.93;3.63;;;;;;;22.10;100.00;99921.97;5112962;28;20273;-69
2023/09/06 07:39:25;;;;;;;2.57;2.47;;;;;;;22.05;100.00;99904.97;5111413;28;20236;-68
2023/09/06 07:41:53;;;;;;;2.43;2.33;;;;;;;22.26;100.00;99927.00;5112252;28;20191;-69
2023/09/06 07:44:20;;;;;;;3.30;3.10;;;;;;;22.22;100.00;99910.69;5111576;28;20194;-70
2023/09/06 07:46:48;;;;;;;3.10;2.90;;;;;;;22.34;100.00;99927.28;5112130;28;20231;-67
2023/09/06 07:49:15;;;;;;;2.43;2.33;;;;;;;22.38;100.00;99926.97;5111136;28;20235;-68
2023/09/06 07:51:42;;;;;;;2.83;2.63;;;;;;;22.35;100.00;99921.97;5111734;28;20203;-67
2023/09/06 07:54:11;;;;;;;2.93;2.40;;;;;;;22.38;100.00;99936.59;5111769;28;20195;-68
2023/09/06 07:56:39;;;;;;;2.50;2.30;;;;;;;22.29;100.00;99937.22;5111711;28;20651;-70
2023/09/06 07:59:06;;;;;;;2.50;2.33;;;;;;;22.15;100.00;99913.84;5111491;28;20194;-69
2023/09/06 08:01:33;;;;;;;3.47;3.27;;;;;;;22.34;100.00;99933.34;5111561;28;20221;-70
2023/09/06 08:03:59;;;;;;;2.27;2.17;;;;;;;22.28;100.00;99925.94;5105209;28;20264;-69
2023/09/06 08:06:26;;;;;;;2.97;2.77;;;;;;;22.36;100.00;99933.22;5109591;28;20195;-69
2023/09/06 08:08:53;;;;;;;4.63;2.17;;;;;;;22.41;100.00;99937.22;5109961;28;20210;-69
2023/09/06 08:11:21;;;;;;;3.00;2.80;;;;;;;22.42;100.00;99936.25;5110725;28;20202;-69
2023/09/06 08:13:47;;;;;;;3.23;2.60;;;;;;;22.43;100.00;99945.75;5110512;28;20199;-69
2023/09/06 08:16:14;;;;;;;3.03;2.50;;;;;;;22.51;100.00;99937.41;5108195;27;20682;-70
2023/09/06 08:18:41;;;;;;;2.70;2.60;;;;;;;22.56;100.00;99935.28;5111368;28;20206;-69
2023/09/06 08:21:08;;;;;;;3.23;3.03;;;;;;;22.64;100.00;99938.19;5109426;28;22094;-70
2023/09/06 08:23:35;;;;;;;2.23;2.00;;;;;;;22.72;100.00;99935.88;5110151;28;20290;-69
2023/09/06 08:26:02;;;;;;;2.57;2.47;;;;;;;22.72;100.00;99930.66;5110852;28;20674;-68
2023/09/06 08:28:30;;;;;;;3.13;3.03;;;;;;;22.78;100.00;99935.44;5109119;28;20198;-69
2023/09/06 08:30:58;;;;;;;3.13;2.93;;;;;;;22.80;100.00;99936.19;5109765;28;20203;-69
2023/09/06 08:33:25;;;;;;;2.97;2.87;;;;;;;22.85;100.00;99930.59;5109307;28;20198;-70
2023/09/06 08:35:53;;;;;;;3.27;2.67;;;;;;;22.93;100.00;99938.75;5110848;28;20219;-70
2023/09/06 08:38:20;;;;;;;2.90;2.70;;;;;;;22.89;100.00;99925.06;5111006;28;20202;-69
2023/09/06 08:40:47;;;;;;;2.80;2.70;;;;;;;23.00;100.00;99938.16;5110003;28;20199;-70
2023/09/06 08:43:14;;;;;;;2.53;2.37;;;;;;;23.02;100.00;99933.69;5107950;28;20255;-70
2023/09/06 08:45:44;;;;;;;3.13;2.93;;;;;;;23.05;100.00;99937.00;5107570;28;20191;-70
2023/09/06 08:48:12;;;;;;;3.20;3.10;;;;;;;23.02;100.00;99936.28;5108547;28;21657;-70
2023/09/06 08:50:39;;;;;;;2.90;2.73;;;;;;;23.05;100.00;99939.63;5111060;28;20199;-69
2023/09/06 08:53:06;;;;;;;3.27;3.07;;;;;;;23.09;100.00;99941.06;5110963;28;20563;-72
2023/09/06 08:55:34;;;;;;;3.10;2.90;;;;;;;23.12;100.00;99939.06;5110032;28;20575;-70
2023/09/06 08:58:02;;;;;;;2.00;1.80;;;;;;;23.17;100.00;99941.34;5109462;28;20195;-69
2023/09/06 09:00:30;;;;;;;2.30;2.20;;;;;;;23.20;100.00;99933.28;5110991;28;20210;-68
2023/09/06 09:02:59;;;;;;;2.63;2.53;;;;;;;23.23;100.00;99933.06;5111111;28;20662;-69
2023/09/06 09:05:25;;;;;;;1.77;1.67;;;;;;;23.29;100.00;99933.44;5111091;28;20190;-69
2023/09/06 09:07:58;;;;;;;2.50;2.40;;;;;;;23.33;100.00;99936.63;5110870;27;20278;-70
2023/09/06 09:10:28;;;;;;;3.93;2.63;;;;;;;23.39;100.00;99936.22;5110955;28;20201;-69
2023/09/06 09:12:56;;;;;;;4.30;2.60;;;;;;;23.44;100.00;99932.31;5110528;28;20226;-70
2023/09/06 09:15:25;;;;;;;2.80;2.60;;;;;;;23.51;100.00;99928.31;5110628;28;20211;-69
2023/09/06 09:17:53;;;;;;;2.00;1.90;;;;;;;23.61;100.00;99931.06;5111291;28;20248;-69
2023/09/06 09:20:21;;;;;;;2.30;2.20;;;;;;;23.53;100.00;99917.72;5111312;28;20199;-68
2023/09/06 09:22:50;;;;;;;1.90;1.73;;;;;;;23.76;100.00;99935.13;5111340;28;20644;-69
2023/09/06 09:25:23;;;;;;;3.00;2.13;;;;;;;23.84;100.00;99945.03;5110386;28;20194;-69
2023/09/06 09:27:55;;;;;;;2.57;2.47;;;;;;;23.92;100.00;99950.50;5109438;28;20198;-68
2023/09/06 09:30:23;;;;;;;2.37;2.27;;;;;;;23.92;100.00;99950.50;5110065;28;20198;-68
2023/09/06 09:32:57;;;;;;;3.13;2.57;;;;;;;23.94;100.00;99953.88;5109401;28;20700;-64
2023/09/06 09:35:27;;;;;;;2.50;2.40;;;;;;;23.99;100.00;99951.72;5105916;28;20218;-64
2023/09/06 09:37:56;;;;;;;2.50;2.40;;;;;;;24.00;100.00;99949.00;5106266;28;20195;-64
2023/09/06 09:40:32;;;;;;;2.40;2.30;;;;;;;24.03;100.00;99943.50;5108517;28;20670;-63
2023/09/06 09:43:00;;;;;;;2.03;1.93;;;;;;;24.16;100.00;99947.81;5108774;28;20210;-64
2023/09/06 09:45:29;;;;;;;2.53;2.37;;;;;;;24.27;100.00;99950.44;5108067;28;20255;-64
2023/09/06 09:47:56;;;;;;;2.53;2.40;;;;;;;24.38;99.92;99943.41;5104069;28;20195;-64
2023/09/06 09:50:25;;;;;;;1.60;1.43;;;;;;;24.56;98.52;99938.50;5108367;28;20280;-64
2023/09/06 09:52:53;;;;;;;2.17;2.07;;;;;;;24.70;98.32;99935.63;5109262;28;20615;-64
2023/09/06 09:55:23;;;;;;;1.77;1.67;;;;;;;24.73;96.45;99926.66;5108189;28;20210;-64
2023/09/06 09:57:52;;;;;;;2.20;2.10;;;;;;;24.90;95.22;99945.38;5109300;28;20191;-64
2023/09/06 10:00:27;;;;;;;2.03;1.93;;;;;;;25.00;93.54;99930.56;5109639;28;20279;-64
2023/09/06 10:03:00;;;;;;;2.33;2.03;;;;;;;25.17;95.10;99930.97;5107497;28;20203;-64
2023/09/06 10:05:30;;;;;;;2.73;2.00;;;;;;;25.36;93.64;99931.13;5106927;28;20283;-65
2023/09/06 10:08:01;;;;;;;2.17;1.97;;;;;;;25.55;94.43;99926.03;5108350;28;20285;-65
2023/09/06 10:10:28;;;;;;;2.17;2.07;;;;;;;25.67;87.52;99932.88;5106301;28;20203;-65
2023/09/06 10:13:01;;;;;;;2.03;1.93;;;;;;;25.92;88.02;99929.84;5108336;28;20260;-65
2023/09/06 10:15:28;;;;;;;2.30;2.10;;;;;;;26.03;87.13;99926.31;5109300;28;20229;-65
2023/09/06 10:17:56;;;;;;;2.43;2.23;;;;;;;26.16;88.07;99929.59;5107543;28;20282;-64
2023/09/06 10:20:26;;;;;;;2.03;1.93;;;;;;;26.32;85.53;99923.81;5111078;28;20589;-65
2023/09/06 10:22:57;;;;;;;1.60;1.57;;;;;;;26.43;84.51;99921.09;5109036;28;20206;-65
2023/09/06 10:25:25;;;;;;;1.93;1.83;;;;;;;26.49;82.87;99923.19;5112096;28;20194;-64
2023/09/06 10:27:54;;;;;;;3.27;3.07;;;;;;;26.58;80.83;99922.38;5115496;27;20230;-64
2023/09/06 10:30:28;;;;;;;1.73;1.63;;;;;;;26.59;79.40;99918.78;5113737;28;20767;-63
2023/09/06 10:32:55;;;;;;;2.37;2.17;;;;;;;26.67;83.19;99908.41;5111914;28;20198;-64
2023/09/06 10:35:25;;;;;;;1.87;1.77;;;;;;;26.68;81.80;99925.88;5116627;27;20225;-64
2023/09/06 10:38:04;;;;;;;1.67;1.57;;;;;;;26.72;81.34;99923.81;5108346;28;20195;-64
2023/09/06 10:41:11;;;;;;;1.77;1.67;;;;;;;26.77;78.98;99922.41;5109201;28;21205;-64
2023/09/06 10:43:54;;;;;;;3.10;1.60;;;;;;;26.74;79.61;99920.06;5110482;28;20210;-65
2023/09/06 10:46:26;;;;;;;2.50;2.40;;;;;;;26.83;79.34;99927.16;5115102;27;20289;-64
2023/09/06 10:49:14;;;;;;;1.87;1.77;;;;;;;26.95;77.08;99926.06;5112006;28;20212;-64
2023/09/06 10:51:56;;;;;;;1.33;1.33;;;;;;;27.03;77.17;99918.31;5110735;28;20212;-64
2023/09/06 10:54:25;;;;;;;3.47;1.90;;;;;;;27.14;80.00;99920.78;5107401;28;20259;-64
2023/09/06 10:56:58;;;;;;;2.30;2.20;;;;;;;27.27;78.39;99917.88;5112245;28;20283;-64
2023/09/06 10:59:25;;;;;;;3.73;1.90;;;;;;;27.41;73.98;99908.72;5110774;28;20244;-64
2023/09/06 11:02:11;;;;;;;2.00;1.90;;;;;;;27.53;75.74;99904.97;5113489;28;20207;-64
2023/09/06 11:04:38;;;;;;;1.70;1.60;;;;;;;27.62;78.20;99893.63;5111396;28;20197;-64
2023/09/06 11:07:10;;;;;;;1.73;1.73;;;;;;;27.81;76.40;99898.00;5113268;28;20195;-64
2023/09/06 11:09:43;;;;;;;1.73;1.63;;;;;;;27.95;75.45;99893.06;5113185;28;20194;-65
2023/09/06 11:12:12;;;;;;;3.37;2.67;;;;;;;28.10;79.42;99896.94;5110737;28;20302;-65
2023/09/06 11:14:39;;;;;;;2.30;2.20;;;;;;;28.19;73.33;99900.50;5110753;28;20209;-65
2023/09/06 11:17:06;;;;;;;2.23;1.77;;;;;;;28.22;74.54;99891.47;5113420;28;20317;-64
2023/09/06 11:19:35;;;;;;;2.10;1.90;;;;;;;28.23;72.45;99887.88;5111235;27;20682;-65
2023/09/06 11:22:10;;;;;;;2.50;2.40;;;;;;;28.27;69.83;99881.31;5112708;28;20535;-64
2023/09/06 11:24:38;;;;;;;1.80;1.70;;;;;;;28.13;69.66;99862.38;5112984;28;20200;-64
2023/09/06 11:27:19;;;;;;;2.17;2.07;;;;;;;28.24;73.00;99876.34;5113255;28;20203;-64
2023/09/06 11:29:46;;;;;;;1.80;1.70;;;;;;;28.30;71.58;99878.41;5108384;28;20628;-65
2023/09/06 11:32:14;;;;;;;1.97;1.87;;;;;;;28.17;68.88;99874.28;5110020;28;20264;-65
2023/09/06 11:34:44;;;;;;;1.80;1.70;;;;;;;28.04;70.27;99871.13;5111412;28;20205;-67
2023/09/06 11:37:14;;;;;;;2.00;1.90;;;;;;;27.99;71.29;99869.91;5110050;28;20640;-67